METAR Data
IDs: Format: Raw Decoded Include TAF

Data at: 0123 UTC 24 Sep 2018

K28J 240115Z AUTO 10004KT 10SM CLR 25/23 A3003 RMK AO2
K28J 240055Z AUTO 10005KT 10SM CLR 25/23 A3002 RMK AO2
K28J 240035Z AUTO 09005KT 10SM CLR 26/22 A3002 RMK AO2 LTG DSNT S AND SW
K28J 240015Z AUTO 09007KT 10SM CLR 26/22 A3001 RMK AO2
K28J 232355Z AUTO 10006KT 10SM CLR 27/22 A3000 RMK AO2
K28J 232335Z AUTO 10007KT 10SM CLR 27/22 A3000 RMK AO2
K28J 232315Z AUTO 10008KT 10SM CLR 28/22 A2999 RMK AO2
K28J 232255Z AUTO 09009KT 10SM CLR 28/22 A2999 RMK AO2
K28J 232235Z AUTO 10009KT 10SM CLR 29/21 A2998 RMK AO2
K28J 232215Z AUTO 09010G14KT 10SM CLR 29/22 A2998 RMK AO2
K28J 232155Z AUTO 08010G14KT 10SM CLR 30/22 A2998 RMK AO2
K28J 232135Z AUTO 09008KT 10SM FEW045 29/20 A2998 RMK AO2
K28J 232115Z AUTO 10009KT 10SM FEW043 30/21 A2998 RMK AO2
K28J 232055Z AUTO 08008KT 10SM FEW043 30/21 A2998 RMK AO2
K28J 232035Z AUTO 12006KT 10SM CLR 30/20 A2998 RMK AO2
K28J 232015Z AUTO 11010KT 10SM FEW046 FEW060 31/21 A2998 RMK AO2
K28J 231955Z AUTO 10007KT 10SM FEW050 30/20 A2998 RMK AO2
K28J 231935Z AUTO 08006KT 10SM FEW055 31/19 A2998 RMK AO2
K28J 231915Z AUTO 12008KT 10SM BKN055 32/19 A2999 RMK AO2
K28J 231855Z AUTO 06004KT 10SM BKN055 33/20 A3000 RMK AO2
K28J 231835Z AUTO 10010KT 10SM SCT055 32/19 A3001 RMK AO2
K28J 231815Z AUTO 13007KT 120V180 10SM BKN049 32/20 A3002 RMK AO2
K28J 231755Z AUTO 11007KT 10SM BKN049 32/20 A3002 RMK AO2
K28J 231735Z AUTO 10006G14KT 10SM FEW049 32/20 A3003 RMK AO2
K28J 231715Z AUTO 04006KT 10SM FEW045 31/20 A3003 RMK AO2
K28J 231655Z AUTO 12010KT 10SM SCT043 32/20 A3004 RMK AO2
K28J 231635Z AUTO 10006KT 10SM BKN040 BKN047 30/21 A3005 RMK AO2
K28J 231615Z AUTO 14005KT 10SM SCT040 31/22 A3005 RMK AO2
K28J 231555Z AUTO 15007KT 10SM FEW040 31/21 A3005 RMK AO2
K28J 231535Z AUTO 14008KT 10SM FEW032 30/22 A3006 RMK AO2
K28J 231515Z AUTO 11006KT 10SM FEW032 30/22 A3006 RMK AO2
K28J 231455Z AUTO 10005KT 10SM FEW032 29/22 A3006 RMK AO2
K28J 231435Z AUTO 11008KT 090V150 10SM CLR 29/22 A3006 RMK AO2
K28J 231415Z AUTO 11006KT 10SM CLR 29/22 A3006 RMK AO2
K28J 231355Z AUTO 13006KT 10SM CLR 28/23 A3006 RMK AO2
K28J 231335Z AUTO 07005KT 10SM CLR 28/24 A3005 RMK AO2
K28J 231315Z AUTO 08003KT 9SM CLR 27/24 A3004 RMK AO2
K28J 231255Z AUTO 00000KT 10SM CLR 25/25 A3004 RMK AO2
K28J 231235Z AUTO 00000KT 10SM CLR 23/23 A3004 RMK AO2
K28J 231215Z AUTO 00000KT 10SM CLR 22/22 A3003 RMK AO2
K28J 231155Z AUTO 00000KT 10SM CLR 21/21 A3002 RMK AO2
K28J 231135Z AUTO 00000KT 6SM BR CLR 20/20 A3002 RMK AO2
K28J 231115Z AUTO 00000KT 10SM FEW027 20/20 A3001 RMK AO2
K28J 231055Z AUTO 00000KT 9SM SCT024 SCT030 20/20 A3001 RMK AO2
K28J 231035Z AUTO 00000KT 10SM SCT024 SCT037 20/20 A3001 RMK AO2
K28J 231015Z AUTO 00000KT 9SM SCT026 BKN033 BKN038 21/21 A3000 RMK AO2
K28J 230955Z AUTO 00000KT 10SM SCT022 BKN028 BKN041 21/21 A3000 RMK AO2
K28J 230935Z AUTO 00000KT 10SM BKN023 BKN028 BKN034 20/20 A3000 RMK AO2
K28J 230915Z AUTO 00000KT 10SM SCT022 BKN028 OVC035 20/20 A3000 RMK AO2
K28J 230855Z AUTO 00000KT 10SM BKN022 20/20 A3000 RMK AO2
K28J 230835Z AUTO 00000KT 5SM BR SCT026 20/20 A3000 RMK AO2
K28J 230815Z AUTO 28003KT 10SM FEW020 SCT028 20/20 A3001 RMK AO2
K28J 230755Z AUTO 00000KT 10SM FEW022 SCT047 21/21 A3001 RMK AO2
K28J 230735Z AUTO 00000KT 10SM SCT022 SCT033 BKN045 21/21 A3001 RMK AO2
K28J 230715Z AUTO 00000KT 10SM FEW020 SCT033 21/21 A3001 RMK AO2
K28J 230655Z AUTO 00000KT 10SM BKN024 BKN030 20/20 A3002 RMK AO2
K28J 230635Z AUTO 00000KT 10SM BKN024 21/21 A3002 RMK AO2
K28J 230615Z AUTO 00000KT 10SM SCT022 22/22 A3002 RMK AO2
K28J 230555Z AUTO 00000KT 10SM FEW019 22/22 A3002 RMK AO2
K28J 230535Z AUTO 25003KT 10SM FEW019 22/22 A3003 RMK AO2
K28J 230515Z AUTO 27005KT 10SM CLR 22/22 A3003 RMK AO2
K28J 230455Z AUTO 00000KT 10SM CLR 22/22 A3003 RMK AO2
K28J 230435Z AUTO 00000KT 10SM FEW047 22/22 A3004 RMK AO2
K28J 230415Z AUTO 00000KT 10SM FEW027 FEW038 SCT046 22/22 A3004 RMK AO2
K28J 230355Z AUTO 00000KT 10SM FEW029 FEW035 BKN047 23/23 A3005 RMK AO2
K28J 230335Z AUTO 00000KT 10SM FEW021 22/22 A3005 RMK AO2
K28J 230315Z AUTO 00000KT 10SM CLR 23/23 A3005 RMK AO2
K28J 230255Z AUTO 00000KT 10SM FEW029 FEW038 SCT049 23/23 A3005 RMK AO2
K28J 230235Z AUTO 00000KT 10SM FEW029 SCT034 SCT041 23/23 A3005 RMK AO2
K28J 230215Z AUTO 00000KT 10SM CLR 24/24 A3004 RMK AO2
K28J 230155Z AUTO 10003KT 10SM FEW025 FEW045 25/24 A3004 RMK AO2
K28J 230135Z AUTO 07003KT 10SM FEW036 SCT044 25/24 A3004 RMK AO2 LTG DSNT W
K28J 230115Z AUTO 00000KT 10SM SCT031 25/23 A3003 RMK AO2
K28J 230055Z AUTO 09004KT 10SM SCT030 25/23 A3002 RMK AO2
K28J 230035Z AUTO 09004KT 10SM CLR 25/23 A3002 RMK AO2
K28J 230015Z AUTO 10005KT 10SM FEW036 26/23 A3001 RMK AO2
K28J 222355Z AUTO 09005KT 10SM FEW038 26/23 A3001 RMK AO2
K28J 222335Z AUTO 10006KT 10SM CLR 27/23 A3001 RMK AO2
K28J 222315Z AUTO 11007KT 10SM CLR 27/23 A3001 RMK AO2
K28J 222255Z AUTO 10008KT 10SM CLR 28/23 A3001 RMK AO2
K28J 222235Z AUTO 11007KT 10SM CLR 28/23 A3001 RMK AO2
K28J 222215Z AUTO 12009KT 10SM CLR 29/23 A3000 RMK AO2
K28J 222155Z AUTO 12010G16KT 10SM FEW030 29/23 A3000 RMK AO2
K28J 222135Z AUTO 11009KT 10SM SCT100 29/23 A3000 RMK AO2
K28J 222115Z AUTO 12010KT 10SM FEW042 BKN100 30/22 A2999 RMK AO2
K28J 222055Z AUTO 08010G16KT 10SM FEW031 BKN080 OVC100 29/23 A3000 RMK AO2
K28J 222035Z AUTO 09010G15KT 10SM FEW048 BKN080 OVC090 29/22 A3000 RMK AO2
K28J 222015Z AUTO 10010G15KT 10SM FEW042 BKN080 OVC085 30/22 A3000 RMK AO2
K28J 221955Z AUTO 08012G15KT 10SM FEW040 BKN080 30/22 A3000 RMK AO2
K28J 221935Z AUTO 10009KT 10SM SCT040 BKN060 BKN065 30/22 A3001 RMK AO2
K28J 221915Z AUTO 08009KT 050V110 10SM FEW035 BKN050 30/23 A3001 RMK AO2
K28J 221855Z AUTO 11009KT 070V130 10SM SCT065 31/23 A3001 RMK AO2
K28J 221835Z AUTO 08008KT 10SM BKN065 30/23 A3002 RMK AO2
K28J 221815Z AUTO 08007KT 10SM FEW030 FEW090 30/23 A3003 RMK AO2
K28J 221755Z AUTO 09007KT 10SM FEW032 FEW090 30/23 A3005 RMK AO2
K28J 221735Z AUTO 08009KT 10SM CLR 30/23 A3005 RMK AO2
K28J 221715Z AUTO 06008KT 10SM FEW090 30/23 A3005 RMK AO2
K28J 221655Z AUTO 05006KT 10SM FEW070 SCT080 29/24 A3006 RMK AO2
K28J 221635Z AUTO 05008KT 10SM FEW055 BKN070 OVC080 28/23 A3007 RMK AO2
K28J 221615Z AUTO 08006KT 10SM BKN070 29/23 A3008 RMK AO2
K28J 221555Z AUTO 05006KT 10SM BKN070 BKN100 29/23 A3008 RMK AO2
K28J 221535Z AUTO 11005KT 10SM SCT070 BKN100 28/24 A3009 RMK AO2
K28J 221515Z AUTO 11008KT 060V130 10SM FEW027 SCT080 28/24 A3008 RMK AO2
K28J 221455Z AUTO 07006KT 10SM CLR 28/23 A3008 RMK AO2
K28J 221435Z AUTO 06007KT 10SM CLR 29/23 A3008 RMK AO2
K28J 221415Z AUTO 08007KT 10SM CLR 29/23 A3008 RMK AO2
K28J 221355Z AUTO 09006KT 10SM CLR 28/24 A3008 RMK AO2 P0006